createdAt,value
2022-12-19T00:00:24.115Z,970.8
2022-12-19T00:01:25.481Z,970.78
2022-12-19T00:02:24.426Z,970.76
2022-12-19T00:03:24.356Z,970.75
2022-12-19T00:04:25.465Z,970.74
2022-12-19T00:05:24.648Z,970.72
2022-12-19T00:06:24.214Z,970.71
2022-12-19T00:07:25.691Z,970.74
2022-12-19T00:09:24.226Z,970.76
2022-12-19T00:11:24.247Z,970.74
2022-12-19T00:12:24.209Z,970.72
2022-12-19T00:13:24.276Z,970.74
2022-12-19T00:14:24.240Z,970.72
2022-12-19T00:15:24.139Z,970.7
2022-12-19T00:16:24.382Z,970.68
2022-12-19T00:17:24.240Z,970.7
2022-12-19T00:18:24.215Z,970.73
2022-12-19T00:19:24.277Z,970.7
2022-12-19T00:20:24.252Z,970.68
2022-12-19T00:21:24.217Z,970.65
2022-12-19T00:22:24.295Z,970.74
2022-12-19T00:23:24.163Z,970.73
2022-12-19T00:24:24.218Z,970.74
2022-12-19T00:25:24.165Z,970.69
2022-12-19T00:26:24.199Z,970.66
2022-12-19T00:27:24.232Z,970.65
2022-12-19T00:28:26.611Z,970.66
2022-12-19T00:29:24.261Z,970.67
2022-12-19T00:31:24.360Z,970.69
2022-12-19T00:32:24.276Z,970.66
2022-12-19T00:33:25.606Z,970.6
2022-12-19T00:34:24.305Z,970.53
2022-12-19T00:35:24.283Z,970.58
2022-12-19T00:36:24.256Z,970.66
2022-12-19T00:37:24.208Z,970.62
2022-12-19T00:38:24.281Z,970.66
2022-12-19T00:39:24.359Z,970.65
2022-12-19T00:41:24.382Z,970.66
2022-12-19T00:42:25.654Z,970.65
2022-12-19T00:43:24.312Z,970.62
2022-12-19T00:44:24.222Z,970.64
2022-12-19T00:45:24.458Z,970.66
2022-12-19T00:46:24.386Z,970.62
2022-12-19T00:47:24.281Z,970.66
2022-12-19T00:48:25.185Z,970.69
2022-12-19T00:49:24.376Z,970.67
2022-12-19T00:50:24.290Z,970.68
2022-12-19T00:51:24.362Z,970.66
2022-12-19T00:52:24.334Z,970.68
2022-12-19T00:53:24.645Z,970.67
2022-12-19T00:54:25.503Z,970.71
2022-12-19T00:55:24.336Z,970.61
2022-12-19T00:58:24.484Z,970.65
2022-12-19T01:00:24.394Z,970.64
2022-12-19T01:01:24.298Z,970.53
2022-12-19T01:02:24.388Z,970.6
2022-12-19T01:04:28.764Z,970.56
2022-12-19T01:05:24.420Z,970.52
2022-12-19T01:07:24.362Z,970.49
2022-12-19T01:08:24.271Z,970.52
2022-12-19T01:09:24.562Z,970.53
2022-12-19T01:10:24.256Z,970.52
2022-12-19T01:11:24.327Z,970.56
2022-12-19T01:12:24.818Z,970.61
2022-12-19T01:13:24.358Z,970.62
2022-12-19T01:14:24.434Z,970.63
2022-12-19T01:15:24.405Z,970.61
2022-12-19T01:16:24.299Z,970.6
2022-12-19T01:17:24.288Z,970.53
2022-12-19T01:18:24.286Z,970.52
2022-12-19T01:19:24.365Z,970.47
2022-12-19T01:20:29.355Z,970.46
2022-12-19T01:21:24.482Z,970.42
2022-12-19T01:22:24.364Z,970.39
2022-12-19T01:23:24.282Z,970.37
2022-12-19T01:25:24.418Z,970.33
2022-12-19T01:26:24.320Z,970.39
2022-12-19T01:27:24.409Z,970.38
2022-12-19T01:28:24.311Z,970.37
2022-12-19T01:29:24.449Z,970.38
2022-12-19T01:30:24.305Z,970.49
2022-12-19T01:31:24.346Z,970.48
2022-12-19T01:33:24.428Z,970.47
2022-12-19T01:36:24.505Z,970.49
2022-12-19T01:37:24.409Z,970.45
2022-12-19T01:39:24.352Z,970.42
2022-12-19T01:40:24.501Z,970.41
2022-12-19T01:41:24.339Z,970.43
2022-12-19T01:42:24.428Z,970.37
2022-12-19T01:44:24.567Z,970.41
2022-12-19T01:45:27.747Z,970.42
2022-12-19T01:46:24.707Z,970.43
2022-12-19T01:47:24.503Z,970.47
2022-12-19T01:48:24.435Z,970.45
2022-12-19T01:49:24.799Z,970.43
2022-12-19T01:50:24.469Z,970.44
2022-12-19T01:52:24.506Z,970.43
2022-12-19T01:53:24.477Z,970.42
2022-12-19T01:54:24.642Z,970.45
2022-12-19T01:55:24.424Z,970.42
2022-12-19T01:56:24.465Z,970.39
2022-12-19T01:57:24.408Z,970.42
2022-12-19T01:58:24.484Z,970.38
2022-12-19T01:59:24.452Z,970.37
2022-12-19T02:00:24.413Z,970.4
2022-12-19T02:02:24.810Z,970.39
2022-12-19T02:03:24.498Z,970.4
2022-12-19T02:05:24.467Z,970.41
2022-12-19T02:06:24.433Z,970.4
2022-12-19T02:07:24.497Z,970.36
2022-12-19T02:08:24.471Z,970.32
2022-12-19T02:09:24.362Z,970.34
2022-12-19T02:10:24.372Z,970.25
2022-12-19T02:12:24.441Z,970.23
2022-12-19T02:13:25.600Z,970.19
2022-12-19T02:14:24.466Z,970.15
2022-12-19T02:15:24.455Z,970.16
2022-12-19T02:16:24.509Z,970.22
2022-12-19T02:17:24.796Z,970.24
2022-12-19T02:18:24.458Z,970.29
2022-12-19T02:19:24.517Z,970.33
2022-12-19T02:20:24.388Z,970.35
2022-12-19T02:21:24.454Z,970.38
2022-12-19T02:23:24.499Z,970.33
2022-12-19T02:24:24.432Z,970.27
2022-12-19T02:25:24.427Z,970.3
2022-12-19T02:26:24.491Z,970.31
2022-12-19T02:27:24.414Z,970.27
2022-12-19T02:29:24.432Z,970.24
2022-12-19T02:30:24.435Z,970.26
2022-12-19T02:31:24.450Z,970.25
2022-12-19T02:32:24.500Z,970.24
2022-12-19T02:34:24.549Z,970.23
2022-12-19T02:36:24.446Z,970.26
2022-12-19T02:37:24.550Z,970.25
2022-12-19T02:38:24.703Z,970.29
2022-12-19T02:39:24.580Z,970.31
2022-12-19T02:40:24.559Z,970.32
2022-12-19T02:41:24.729Z,970.36
2022-12-19T02:43:24.562Z,970.34
2022-12-19T02:44:24.524Z,970.39
2022-12-19T02:45:28.694Z,970.37
2022-12-19T02:46:24.558Z,970.35
2022-12-19T02:47:24.639Z,970.32
2022-12-19T02:48:24.602Z,970.25
2022-12-19T02:49:24.950Z,970.24
2022-12-19T02:50:24.543Z,970.19
2022-12-19T02:51:24.612Z,970.17
2022-12-19T02:52:24.569Z,970.19
2022-12-19T02:53:24.538Z,970.16
2022-12-19T02:54:24.498Z,970.19
2022-12-19T02:55:24.580Z,970.13
2022-12-19T02:56:24.509Z,970.15
2022-12-19T02:57:24.510Z,970.14
2022-12-19T02:58:24.583Z,970.15
2022-12-19T02:59:24.658Z,970.19
2022-12-19T03:00:24.727Z,970.21
2022-12-19T03:01:24.678Z,970.19
2022-12-19T03:02:25.201Z,970.22
2022-12-19T03:06:24.713Z,970.27
2022-12-19T03:07:24.620Z,970.31
2022-12-19T03:08:25.901Z,970.29
2022-12-19T03:09:24.647Z,970.32
2022-12-19T03:10:24.617Z,970.36
2022-12-19T03:11:24.573Z,970.37
2022-12-19T03:12:24.653Z,970.44
2022-12-19T03:13:24.614Z,970.49
2022-12-19T03:14:28.969Z,970.59
2022-12-19T03:15:24.650Z,970.64
2022-12-19T03:16:24.697Z,970.59
2022-12-19T03:18:24.562Z,970.54
2022-12-19T03:19:24.627Z,970.49
2022-12-19T03:20:24.692Z,970.52
2022-12-19T03:21:24.653Z,970.56
2022-12-19T03:23:24.688Z,970.49
2022-12-19T03:24:24.662Z,970.51
2022-12-19T03:25:24.738Z,970.5
2022-12-19T03:26:24.702Z,970.48
2022-12-19T03:27:24.676Z,970.37
2022-12-19T03:28:24.735Z,970.38
2022-12-19T03:29:24.707Z,970.45
2022-12-19T03:30:24.598Z,970.47
2022-12-19T03:31:24.748Z,970.46
2022-12-19T03:32:24.603Z,970.49
2022-12-19T03:33:24.591Z,970.55
2022-12-19T03:35:24.755Z,970.54
2022-12-19T03:36:24.640Z,970.58
2022-12-19T03:37:24.603Z,970.55
2022-12-19T03:38:24.626Z,970.48
2022-12-19T03:39:24.625Z,970.57
2022-12-19T03:40:24.760Z,970.54
2022-12-19T03:41:24.619Z,970.48
2022-12-19T03:43:24.763Z,970.43
2022-12-19T03:44:24.638Z,970.34
2022-12-19T03:45:24.700Z,970.37
2022-12-19T03:46:24.800Z,970.35
2022-12-19T03:47:24.624Z,970.27
2022-12-19T03:48:24.710Z,970.28
2022-12-19T03:50:24.644Z,970.24
2022-12-19T03:51:24.711Z,970.29
2022-12-19T03:52:24.783Z,970.27
2022-12-19T03:53:24.744Z,970.24
2022-12-19T03:54:24.728Z,970.25
2022-12-19T03:55:24.644Z,970.27
2022-12-19T03:56:24.763Z,970.28
2022-12-19T03:57:24.815Z,970.23
2022-12-19T03:58:24.775Z,970.28
2022-12-19T03:59:24.748Z,970.27
2022-12-19T04:00:24.661Z,970.25
2022-12-19T04:01:24.912Z,970.26
2022-12-19T04:02:24.855Z,970.31
2022-12-19T04:03:24.743Z,970.22
2022-12-19T04:05:24.776Z,970.21
2022-12-19T04:06:24.838Z,970.2
2022-12-19T04:07:24.684Z,970.21
2022-12-19T04:08:24.770Z,970.2
2022-12-19T04:10:24.814Z,970.19
2022-12-19T04:11:24.770Z,970.25
2022-12-19T04:12:24.728Z,970.22
2022-12-19T04:13:24.812Z,970.23
2022-12-19T04:14:24.768Z,970.17
2022-12-19T04:15:24.862Z,970.23
2022-12-19T04:16:24.814Z,970.24
2022-12-19T04:17:24.693Z,970.17
2022-12-19T04:18:24.847Z,970.22
2022-12-19T04:19:24.818Z,970.16
2022-12-19T04:20:24.786Z,970.19
2022-12-19T04:21:24.872Z,970.14
2022-12-19T04:22:24.823Z,970.15
2022-12-19T04:24:24.863Z,970.18
2022-12-19T04:25:29.130Z,970.15
2022-12-19T04:26:24.728Z,970.17
2022-12-19T04:27:24.851Z,970.16
2022-12-19T04:28:24.816Z,970.13
2022-12-19T04:29:24.801Z,970.16
2022-12-19T04:30:24.895Z,970.13
2022-12-19T04:31:24.969Z,970.11
2022-12-19T04:32:24.743Z,970.12
2022-12-19T04:33:24.861Z,970.13
2022-12-19T04:34:24.824Z,970.19
2022-12-19T04:35:24.794Z,970.15
2022-12-19T04:36:24.751Z,970.14
2022-12-19T04:37:24.837Z,970.16
2022-12-19T04:39:24.867Z,970.12
2022-12-19T04:40:24.866Z,970.17
2022-12-19T04:41:24.761Z,970.18
2022-12-19T04:42:24.753Z,970.19
2022-12-19T04:43:24.840Z,970.18
2022-12-19T04:44:26.127Z,970.13
2022-12-19T04:45:24.884Z,970.14
2022-12-19T04:46:24.871Z,970.11
2022-12-19T04:48:24.977Z,970.15
2022-12-19T04:49:24.867Z,970.12
2022-12-19T04:50:24.922Z,970.11
2022-12-19T04:52:24.945Z,970.09
2022-12-19T04:53:24.795Z,970.07
2022-12-19T04:54:24.892Z,970.04
2022-12-19T04:55:24.860Z,970.02
2022-12-19T04:56:24.803Z,970.04
2022-12-19T04:57:24.911Z,970.03
2022-12-19T04:58:24.897Z,970
2022-12-19T04:59:24.995Z,970.01
2022-12-19T05:00:24.936Z,970.02
2022-12-19T05:01:24.925Z,970.04
2022-12-19T05:02:24.907Z,970.06
2022-12-19T05:04:24.881Z,970.05
2022-12-19T05:05:24.943Z,970.04
2022-12-19T05:06:24.897Z,970.05
2022-12-19T05:07:24.866Z,970.04
2022-12-19T05:08:24.944Z,970.03
2022-12-19T05:09:24.938Z,970.05
2022-12-19T05:10:24.900Z,970.06
2022-12-19T05:12:24.964Z,970.04
2022-12-19T05:13:24.842Z,970.02
2022-12-19T05:14:24.953Z,970.04
2022-12-19T05:15:24.921Z,970.01
2022-12-19T05:16:25.052Z,970
2022-12-19T05:17:24.892Z,969.99
2022-12-19T05:18:24.931Z,970.01
2022-12-19T05:19:24.846Z,970.02
2022-12-19T05:20:24.977Z,970.04
2022-12-19T05:21:24.837Z,970.02
2022-12-19T05:22:25.000Z,969.97
2022-12-19T05:25:25.060Z,969.96
2022-12-19T05:26:25.000Z,969.92
2022-12-19T05:27:24.936Z,969.94
2022-12-19T05:28:24.997Z,969.98
2022-12-19T05:29:24.886Z,969.93
2022-12-19T05:30:24.929Z,969.95
2022-12-19T05:31:25.137Z,969.9
2022-12-19T05:32:24.881Z,969.91
2022-12-19T05:33:24.877Z,969.93
2022-12-19T05:35:24.983Z,969.87
2022-12-19T05:36:29.139Z,969.82
2022-12-19T05:37:25.070Z,969.84
2022-12-19T05:38:24.982Z,969.83
2022-12-19T05:39:24.949Z,969.87
2022-12-19T05:40:25.019Z,969.85
2022-12-19T05:41:24.983Z,969.86
2022-12-19T05:42:25.068Z,969.89
2022-12-19T05:43:24.897Z,969.86
2022-12-19T05:44:24.896Z,969.83
2022-12-19T05:45:25.044Z,969.87
2022-12-19T05:48:25.054Z,969.88
2022-12-19T05:49:24.933Z,969.91
2022-12-19T05:50:25.000Z,969.9
2022-12-19T05:51:25.063Z,969.92
2022-12-19T05:52:25.025Z,969.91
2022-12-19T05:53:26.161Z,969.92
2022-12-19T05:54:25.207Z,969.91
2022-12-19T05:55:25.035Z,969.92
2022-12-19T05:56:24.919Z,969.89
2022-12-19T05:57:25.066Z,969.91
2022-12-19T05:58:25.037Z,969.92
2022-12-19T05:59:25.028Z,969.91
2022-12-19T06:00:24.923Z,969.86
2022-12-19T06:02:25.076Z,969.9
2022-12-19T06:04:25.049Z,969.92
2022-12-19T06:05:25.005Z,969.94
2022-12-19T06:06:25.071Z,969.95
2022-12-19T06:07:24.955Z,969.94
2022-12-19T06:08:25.011Z,969.92
2022-12-19T06:09:25.076Z,969.91
2022-12-19T06:10:25.048Z,969.95
2022-12-19T06:11:25.020Z,969.91
2022-12-19T06:12:25.083Z,969.92
2022-12-19T06:13:25.231Z,969.9
2022-12-19T06:14:25.011Z,969.84
2022-12-19T06:16:25.169Z,969.82
2022-12-19T06:17:24.986Z,969.81
2022-12-19T06:18:25.087Z,969.82
2022-12-19T06:19:25.062Z,969.84
2022-12-19T06:20:25.133Z,969.85
2022-12-19T06:21:24.996Z,969.81
2022-12-19T06:22:25.061Z,969.85
2022-12-19T06:23:25.152Z,969.86
2022-12-19T06:24:25.008Z,969.89
2022-12-19T06:25:25.057Z,969.93
2022-12-19T06:27:25.115Z,969.96
2022-12-19T06:28:25.070Z,969.99
2022-12-19T06:31:25.172Z,969.98
2022-12-19T06:32:25.019Z,969.99
2022-12-19T06:33:25.112Z,970
2022-12-19T06:34:47.175Z,970.04
2022-12-19T06:35:25.293Z,970.06
2022-12-19T06:36:25.110Z,970.05
2022-12-19T06:37:25.081Z,970.02
2022-12-19T06:38:25.010Z,969.95
2022-12-19T06:39:25.123Z,969.97
2022-12-19T06:40:25.087Z,970.01
2022-12-19T06:41:25.160Z,970.05
2022-12-19T06:42:25.148Z,970.06
2022-12-19T06:44:25.258Z,970.07
2022-12-19T06:45:25.152Z,970.06
2022-12-19T06:46:25.098Z,970.01
2022-12-19T06:48:25.186Z,970.03
2022-12-19T06:50:25.201Z,970
2022-12-19T06:51:25.182Z,970.04
2022-12-19T06:52:25.209Z,970.03
2022-12-19T06:53:25.060Z,970.05
2022-12-19T06:54:25.114Z,969.98
2022-12-19T06:55:25.197Z,969.99
2022-12-19T06:56:25.048Z,969.93
2022-12-19T06:57:25.062Z,969.9
2022-12-19T06:58:25.202Z,969.89
2022-12-19T07:00:25.192Z,969.85
2022-12-19T07:01:25.295Z,969.89
2022-12-19T07:02:25.233Z,969.85
2022-12-19T07:03:25.147Z,969.89
2022-12-19T07:04:25.320Z,969.84
2022-12-19T07:06:25.199Z,969.81
2022-12-19T07:07:25.229Z,969.84
2022-12-19T07:08:25.097Z,969.85
2022-12-19T07:09:25.168Z,969.81
2022-12-19T07:10:25.092Z,969.8
2022-12-19T07:11:25.096Z,969.79
2022-12-19T07:12:25.149Z,969.83
2022-12-19T07:14:25.197Z,969.87
2022-12-19T07:15:25.168Z,969.91
2022-12-19T07:17:25.203Z,969.93
2022-12-19T07:18:25.171Z,969.92
2022-12-19T07:19:25.248Z,969.91
2022-12-19T07:20:25.111Z,969.84
2022-12-19T07:21:25.168Z,969.82
2022-12-19T07:22:25.107Z,969.77
2022-12-19T07:23:25.201Z,969.75
2022-12-19T07:24:25.108Z,969.76
2022-12-19T07:26:25.221Z,969.78
2022-12-19T07:27:28.536Z,969.82
2022-12-19T07:28:25.365Z,969.84
2022-12-19T07:29:25.211Z,969.88
2022-12-19T07:30:25.181Z,969.91
2022-12-19T07:31:25.266Z,969.94
2022-12-19T07:32:25.136Z,969.99
2022-12-19T07:33:25.297Z,969.97
2022-12-19T07:34:25.245Z,969.98
2022-12-19T07:35:25.231Z,970
2022-12-19T07:36:25.294Z,969.97
2022-12-19T07:37:25.246Z,969.95
2022-12-19T07:39:25.201Z,969.92
2022-12-19T07:40:25.267Z,969.96
2022-12-19T07:41:25.148Z,969.95
2022-12-19T07:43:25.319Z,969.97
2022-12-19T07:44:25.255Z,969.96
2022-12-19T07:45:25.160Z,969.98
2022-12-19T07:46:25.267Z,969.97
2022-12-19T07:47:25.159Z,969.99
2022-12-19T07:48:25.307Z,969.97
2022-12-19T07:49:25.263Z,969.94
2022-12-19T07:50:25.164Z,969.98
2022-12-19T07:51:25.309Z,969.99
2022-12-19T07:52:25.366Z,969.95
2022-12-19T07:53:25.342Z,969.94
2022-12-19T07:54:25.313Z,969.98
2022-12-19T07:55:25.282Z,969.99
2022-12-19T07:57:25.401Z,970.02
2022-12-19T07:58:25.289Z,970.04
2022-12-19T07:59:29.736Z,970.06
2022-12-19T08:00:25.319Z,970.05
2022-12-19T08:01:25.334Z,970.03
2022-12-19T08:03:25.667Z,970.07
2022-12-19T08:04:25.305Z,970.08
2022-12-19T08:05:25.213Z,970.11
2022-12-19T08:06:25.212Z,970.08
2022-12-19T08:07:25.298Z,970.09
2022-12-19T08:08:25.360Z,970.07
2022-12-19T08:10:25.303Z,970.08
2022-12-19T08:12:25.282Z,970.09
2022-12-19T08:13:25.328Z,970.12
2022-12-19T08:14:26.582Z,970.09
2022-12-19T08:15:25.360Z,970.13
2022-12-19T08:16:25.259Z,970.14
2022-12-19T08:17:25.428Z,970.19
2022-12-19T08:18:25.352Z,970.17
2022-12-19T08:19:27.547Z,970.2
2022-12-19T08:20:25.377Z,970.25
2022-12-19T08:22:25.322Z,970.2
2022-12-19T08:23:25.380Z,970.21
2022-12-19T08:24:25.351Z,970.22
2022-12-19T08:25:25.317Z,970.23
2022-12-19T08:28:25.320Z,970.18
2022-12-19T08:29:25.402Z,970.22
2022-12-19T08:30:25.382Z,970.2
2022-12-19T08:31:25.552Z,970.17
2022-12-19T08:32:25.280Z,970.2
2022-12-19T08:33:25.371Z,970.25
2022-12-19T08:34:25.273Z,970.26
2022-12-19T08:36:25.274Z,970.29
2022-12-19T08:38:25.275Z,970.22
2022-12-19T08:39:25.373Z,970.25
2022-12-19T08:40:25.437Z,970.24
2022-12-19T08:42:25.488Z,970.3
2022-12-19T08:43:25.357Z,970.29
2022-12-19T08:44:25.440Z,970.32
2022-12-19T08:45:25.308Z,970.24
2022-12-19T08:46:25.492Z,970.27
2022-12-19T08:47:25.430Z,970.14
2022-12-19T08:48:25.305Z,970.19
2022-12-19T08:49:25.310Z,970.17
2022-12-19T08:50:25.486Z,970.04
2022-12-19T08:51:25.392Z,970.01
2022-12-19T08:52:29.622Z,970.09
2022-12-19T08:53:26.524Z,970
2022-12-19T08:54:25.546Z,969.95
2022-12-19T08:55:25.471Z,970.01
2022-12-19T08:56:25.580Z,970
2022-12-19T08:57:25.396Z,969.98
2022-12-19T08:58:25.468Z,970.06
2022-12-19T08:59:31.385Z,970.04
2022-12-19T09:00:25.597Z,969.99
2022-12-19T09:01:25.516Z,970.04
2022-12-19T09:02:25.604Z,970.06
2022-12-19T09:03:25.468Z,970.07
2022-12-19T09:05:21.331Z,970.03
2022-12-19T09:06:02.717Z,970.06
2022-12-19T09:06:25.584Z,970
2022-12-19T09:07:25.366Z,969.97
2022-12-19T09:08:25.442Z,969.95
2022-12-19T09:09:25.372Z,969.92
2022-12-19T09:11:25.481Z,969.94
2022-12-19T09:12:25.519Z,969.92
2022-12-19T09:13:25.532Z,969.98
2022-12-19T09:14:25.451Z,969.95
2022-12-19T09:16:25.640Z,969.99
2022-12-19T09:17:25.407Z,970.06
2022-12-19T09:19:25.379Z,970.09
2022-12-19T09:20:25.478Z,970.13
2022-12-19T09:21:25.526Z,970.16
2022-12-19T09:22:29.169Z,970.23
2022-12-19T09:25:25.559Z,970.25
2022-12-19T09:26:25.396Z,970.24
2022-12-19T09:27:25.563Z,970.23
2022-12-19T09:28:27.568Z,970.19
2022-12-19T09:29:25.633Z,970.17
2022-12-19T09:30:25.550Z,970.21
2022-12-19T09:31:25.604Z,970.18
2022-12-19T09:32:25.421Z,970.23
2022-12-19T09:33:25.416Z,970.24
2022-12-19T09:34:33.216Z,970.22
2022-12-19T09:35:30.009Z,970.2
2022-12-19T09:36:25.748Z,970.26
2022-12-19T09:37:25.512Z,970.18
2022-12-19T09:38:25.595Z,970.2
2022-12-19T09:39:25.422Z,970.17
2022-12-19T09:40:25.433Z,970.2
2022-12-19T09:41:25.630Z,970.16
2022-12-19T09:42:25.443Z,970.15
2022-12-19T09:43:25.527Z,970.16
2022-12-19T09:44:25.625Z,970.14
2022-12-19T09:45:32.334Z,970.12
2022-12-19T09:47:25.807Z,970.08
2022-12-19T09:48:25.474Z,970.07
2022-12-19T09:49:25.444Z,970.1
2022-12-19T09:50:25.601Z,970.11
2022-12-19T09:51:25.454Z,970.14
2022-12-19T09:52:25.562Z,970.09
2022-12-19T09:53:26.920Z,970.07
2022-12-19T09:55:25.610Z,970.05
2022-12-19T09:56:25.631Z,970.07
2022-12-19T09:57:25.592Z,970.04
2022-12-19T09:58:25.556Z,970.08
2022-12-19T09:59:26.237Z,970.06
2022-12-19T10:00:25.593Z,970.07
2022-12-19T10:01:25.549Z,970.08
2022-12-19T10:02:25.623Z,970.1
2022-12-19T10:04:25.557Z,970.12
2022-12-19T10:05:33.402Z,970.15
2022-12-19T10:06:38.620Z,970.18
2022-12-19T10:08:25.773Z,970.16
2022-12-19T10:10:36.286Z,970.21
2022-12-19T10:10:40.836Z,970.22
2022-12-19T10:12:35.850Z,970.2
2022-12-19T10:12:41.998Z,970.23
2022-12-19T10:13:25.731Z,970.24
2022-12-19T10:15:25.604Z,970.21
2022-12-19T10:16:25.687Z,970.2
2022-12-19T10:17:25.739Z,970.15
2022-12-19T10:18:25.605Z,970.17
2022-12-19T10:19:25.678Z,970.16
2022-12-19T10:20:25.643Z,970.13
2022-12-19T10:21:43.175Z,970.08
2022-12-19T10:22:25.680Z,970.09
2022-12-19T10:24:27.707Z,970.04
2022-12-19T10:25:25.853Z,970.05
2022-12-19T10:26:27.352Z,970.08
2022-12-19T10:27:25.802Z,970.07
2022-12-19T10:28:25.658Z,970.09
2022-12-19T10:29:25.647Z,970.14
2022-12-19T10:30:25.624Z,970.06
2022-12-19T10:31:25.728Z,969.99
2022-12-19T10:32:25.652Z,969.98
2022-12-19T10:33:25.679Z,969.91
2022-12-19T10:34:25.695Z,969.89
2022-12-19T10:35:25.662Z,969.82
2022-12-19T10:36:42.250Z,969.79
2022-12-19T10:37:31.402Z,969.82
2022-12-19T10:38:25.663Z,969.79
2022-12-19T10:39:25.630Z,969.82
2022-12-19T10:40:27.492Z,969.87
2022-12-19T10:41:25.870Z,969.86
2022-12-19T10:42:25.649Z,969.85
2022-12-19T10:43:32.992Z,969.82
2022-12-19T10:44:25.745Z,969.81
2022-12-19T10:46:25.767Z,969.82
2022-12-19T10:47:25.696Z,969.76
2022-12-19T10:48:30.422Z,969.78
2022-12-19T10:49:25.718Z,969.79
2022-12-19T10:50:25.739Z,969.77
2022-12-19T10:51:25.961Z,969.72
2022-12-19T10:52:25.603Z,969.77
2022-12-19T10:54:33.331Z,969.75
2022-12-19T10:55:25.737Z,969.71
2022-12-19T10:56:26.689Z,969.76
2022-12-19T10:57:25.818Z,969.72
2022-12-19T10:58:25.743Z,969.73
2022-12-19T10:59:25.699Z,969.68
2022-12-19T11:00:25.817Z,969.65
2022-12-19T11:01:26.020Z,969.68
2022-12-19T11:02:25.777Z,969.64
2022-12-19T11:03:25.912Z,969.61
2022-12-19T11:05:25.861Z,969.62
2022-12-19T11:06:25.660Z,969.61
2022-12-19T11:07:25.732Z,969.59
2022-12-19T11:08:25.744Z,969.56
2022-12-19T11:10:52.315Z,969.51
2022-12-19T11:12:32.596Z,969.5
2022-12-19T11:13:18.380Z,969.39
2022-12-19T11:16:00.694Z,969.45
2022-12-19T11:16:01.982Z,969.47
2022-12-19T11:17:24.302Z,969.48
2022-12-19T11:19:39.746Z,969.46
2022-12-19T11:20:02.018Z,969.45
2022-12-19T11:21:47.783Z,969.47
2022-12-19T11:24:30.044Z,969.51
2022-12-19T11:26:48.659Z,969.48
2022-12-19T11:28:20.982Z,969.45
2022-12-19T11:29:27.789Z,969.49
2022-12-19T11:29:28.975Z,969.36
2022-12-19T11:29:29.201Z,969.41
2022-12-19T11:30:21.928Z,969.43
2022-12-19T11:30:23.348Z,969.42
2022-12-19T11:30:23.380Z,969.41
2022-12-19T11:30:24.700Z,969.37
2022-12-19T11:31:00.696Z,969.36
2022-12-19T11:32:10.238Z,969.35
2022-12-19T11:32:40.074Z,969.37
2022-12-19T11:33:26.031Z,969.36
2022-12-19T11:34:25.697Z,969.32
2022-12-19T11:35:36.447Z,969.3
2022-12-19T11:36:25.983Z,969.25
2022-12-19T11:37:25.779Z,969.2
2022-12-19T11:38:25.716Z,969.21
2022-12-19T11:39:25.843Z,969.18
2022-12-19T11:42:25.922Z,969.12
2022-12-19T11:43:43.519Z,969.14
2022-12-19T11:45:25.941Z,969.12
2022-12-19T11:47:25.743Z,969.14
2022-12-19T11:48:25.860Z,969.18
2022-12-19T11:49:25.800Z,969.15
2022-12-19T11:51:25.924Z,969.08
2022-12-19T11:53:02.701Z,969.13
2022-12-19T11:53:25.863Z,969.12
2022-12-19T11:54:25.832Z,969.08
2022-12-19T11:55:25.807Z,969.07
2022-12-19T11:56:25.769Z,969.1
2022-12-19T11:58:27.019Z,969.07
2022-12-19T11:59:25.752Z,969.1
2022-12-19T12:00:25.854Z,969.07
2022-12-19T12:01:25.929Z,969.06
2022-12-19T12:02:25.884Z,969.07
2022-12-19T12:03:25.837Z,969.02
2022-12-19T12:04:25.959Z,968.97
2022-12-19T12:05:25.767Z,968.95
2022-12-19T12:06:31.205Z,968.94
2022-12-19T12:08:04.964Z,968.96
2022-12-19T12:09:20.501Z,968.99
2022-12-19T12:10:20.418Z,968.97
2022-12-19T12:11:34.175Z,969
2022-12-19T12:14:38.909Z,968.99
2022-12-19T12:14:43.935Z,968.94
2022-12-19T12:16:50.945Z,968.95
2022-12-19T12:18:59.242Z,968.98
2022-12-19T12:22:25.455Z,968.97
2022-12-19T12:23:52.941Z,968.95
2022-12-19T12:26:34.884Z,968.94
2022-12-19T12:26:47.174Z,968.96
2022-12-19T12:28:57.248Z,968.99
2022-12-19T12:30:53.646Z,968.96
2022-12-19T12:31:33.413Z,968.91
2022-12-19T12:31:34.527Z,968.93
2022-12-19T12:31:34.651Z,968.9
2022-12-19T12:31:36.060Z,968.88
2022-12-19T12:31:36.902Z,968.89
2022-12-19T12:31:37.030Z,968.9
2022-12-19T12:31:37.412Z,968.89
2022-12-19T12:31:38.089Z,969.01
2022-12-19T12:35:25.209Z,968.87
2022-12-19T12:35:25.479Z,968.86
2022-12-19T12:35:25.823Z,968.93
2022-12-19T12:37:45.954Z,968.88
2022-12-19T12:38:27.965Z,968.85
2022-12-19T12:39:31.482Z,968.81
2022-12-19T12:40:25.959Z,968.8
2022-12-19T12:41:25.844Z,968.83
2022-12-19T12:42:25.853Z,968.79
2022-12-19T12:43:25.856Z,968.78
2022-12-19T12:44:33.253Z,968.8
2022-12-19T12:46:26.014Z,968.72
2022-12-19T12:47:25.889Z,968.68
2022-12-19T12:48:25.871Z,968.71
2022-12-19T12:49:25.878Z,968.6
2022-12-19T12:50:25.864Z,968.66
2022-12-19T12:51:27.404Z,968.67
2022-12-19T12:52:25.870Z,968.69
2022-12-19T12:54:26.037Z,968.66
2022-12-19T12:55:25.983Z,968.71
2022-12-19T12:56:26.025Z,968.75
2022-12-19T12:57:26.055Z,968.73
2022-12-19T12:58:25.895Z,968.76
2022-12-19T12:59:25.896Z,968.73
2022-12-19T13:00:26.009Z,968.74
2022-12-19T13:01:26.018Z,968.75
2022-12-19T13:02:27.031Z,968.72
2022-12-19T13:03:26.067Z,968.73
2022-12-19T13:04:25.997Z,968.75
2022-12-19T13:05:25.960Z,968.69
2022-12-19T13:06:26.032Z,968.62
2022-12-19T13:07:25.996Z,968.6
2022-12-19T13:08:25.928Z,968.62
2022-12-19T13:09:25.905Z,968.57
2022-12-19T13:10:26.005Z,968.55
2022-12-19T13:11:26.078Z,968.58
2022-12-19T13:12:25.909Z,968.61
2022-12-19T13:13:26.191Z,968.59
2022-12-19T13:15:26.128Z,968.57
2022-12-19T13:18:26.013Z,968.59
2022-12-19T13:19:28.254Z,968.62
2022-12-19T13:20:27.631Z,968.6
2022-12-19T13:21:26.243Z,968.55
2022-12-19T13:22:25.951Z,968.52
2022-12-19T13:23:25.945Z,968.48
2022-12-19T13:24:26.047Z,968.46
2022-12-19T13:25:26.033Z,968.45
2022-12-19T13:26:27.004Z,968.47
2022-12-19T13:27:25.956Z,968.45
2022-12-19T13:28:26.317Z,968.42
2022-12-19T13:29:25.992Z,968.52
2022-12-19T13:30:26.140Z,968.55
2022-12-19T13:32:27.050Z,968.53
2022-12-19T13:33:26.084Z,968.54
2022-12-19T13:34:26.148Z,968.48
2022-12-19T13:35:37.971Z,968.42
2022-12-19T13:39:52.979Z,968.37
2022-12-19T13:39:53.089Z,968.39
2022-12-19T13:39:53.359Z,968.39
2022-12-19T13:39:53.795Z,968.41
2022-12-19T13:40:30.770Z,968.46
2022-12-19T13:41:26.279Z,968.42
2022-12-19T13:42:25.996Z,968.45
2022-12-19T13:43:27.102Z,968.41
2022-12-19T13:44:25.997Z,968.46
2022-12-19T13:45:26.075Z,968.4
2022-12-19T13:46:26.219Z,968.39
2022-12-19T13:47:26.115Z,968.36
2022-12-19T13:49:26.234Z,968.34
2022-12-19T13:50:26.292Z,968.31
2022-12-19T13:51:26.082Z,968.37
2022-12-19T13:52:26.017Z,968.38
2022-12-19T13:53:26.127Z,968.43
2022-12-19T13:54:26.125Z,968.41
2022-12-19T13:55:26.157Z,968.43
2022-12-19T13:56:26.027Z,968.44
2022-12-19T13:57:26.092Z,968.49
2022-12-19T13:58:28.380Z,968.5
2022-12-19T13:59:26.323Z,968.52
2022-12-19T14:00:26.102Z,968.53
2022-12-19T14:01:27.449Z,968.52
2022-12-19T14:02:26.340Z,968.47
2022-12-19T14:03:26.161Z,968.4
2022-12-19T14:04:26.184Z,968.36
2022-12-19T14:06:26.226Z,968.35
2022-12-19T14:07:30.341Z,968.36
2022-12-19T14:08:26.154Z,968.39
2022-12-19T14:09:58.700Z,968.41
2022-12-19T14:11:28.630Z,968.39
2022-12-19T14:11:32.070Z,968.37
2022-12-19T14:13:40.612Z,968.48
2022-12-19T14:13:51.209Z,968.43
2022-12-19T14:15:26.378Z,968.49
2022-12-19T14:16:34.934Z,968.52
2022-12-19T14:17:26.087Z,968.55